Time;durP1;ratioP1;P1;durP2;ratioP2;P2;SDS_P1;SDS_P2;PMS_P1;PMS_P2;Temp;Humidity;BMP_temperature;BMP_pressure;BME280_temperature;BME280_humidity;BME280_pressure;Samples;Min_cycle;Max_cycle;Signal;HPM_P1;HPM_P2
2023/02/24 00:01:26;;;;;;;1.00;1.00;;;8.80;99.90;;;;;;4992299;28;20099;-80
2023/02/24 00:03:55;;;;;;;0.25;0.25;;;8.90;99.90;;;;;;5002706;28;20036;-81
2023/02/24 00:06:22;;;;;;;0.40;0.40;;;9.00;99.90;;;;;;4996313;28;20137;-81
2023/02/24 00:08:48;;;;;;;0.10;0.10;;;9.10;99.90;;;;;;4984139;28;20041;-82
2023/02/24 00:11:16;;;;;;;3.03;1.80;;;9.10;99.90;;;;;;5000293;28;20882;-81
2023/02/24 00:13:46;;;;;;;0.10;0.10;;;9.10;99.90;;;;;;4987848;28;20033;-83
2023/02/24 00:16:16;;;;;;;5.28;1.10;;;9.20;99.90;;;;;;4983271;28;20085;-81
2023/02/24 00:18:42;;;;;;;13.38;1.55;;;9.20;99.90;;;;;;4980841;28;20037;-81
2023/02/24 00:21:16;;;;;;;1.27;1.13;;;9.10;99.90;;;;;;4981246;28;20149;-82
2023/02/24 00:23:45;;;;;;;0.57;0.57;;;9.20;99.90;;;;;;5002748;28;20131;-81
2023/02/24 00:26:13;;;;;;;3.95;1.55;;;9.10;99.90;;;;;;4978380;28;20030;-81
2023/02/24 00:28:39;;;;;;;0.77;0.52;;;9.20;99.90;;;;;;5003209;28;20034;-82
2023/02/24 00:31:09;;;;;;;0.20;0.20;;;9.20;99.90;;;;;;5002880;28;20137;-81
2023/02/24 00:33:34;;;;;;;0.30;0.30;;;9.10;99.90;;;;;;4998112;28;20036;-82
2023/02/24 00:36:11;;;;;;;0.20;0.20;;;9.10;99.90;;;;;;5007446;28;20038;-82
2023/02/24 00:38:38;;;;;;;;;;;9.10;99.90;;;;;;5014644;28;20082;-81
2023/02/24 00:41:15;;;;;;;1.98;1.02;;;9.10;99.90;;;;;;4999820;28;19920;-81
2023/02/24 00:43:48;;;;;;;0.10;0.10;;;9.10;99.90;;;;;;4993895;28;20077;-82
2023/02/24 00:46:19;;;;;;;0.93;0.68;;;9.10;99.90;;;;;;5005882;28;20029;-83
2023/02/24 00:48:46;;;;;;;1.65;0.90;;;9.10;99.90;;;;;;5008521;28;20045;-83
2023/02/24 00:51:15;;;;;;;;;;;9.00;99.90;;;;;;4985754;28;20037;-82
2023/02/24 00:53:42;;;;;;;2.45;0.55;;;9.00;99.90;;;;;;5012389;28;20693;-81
2023/02/24 00:56:14;;;;;;;0.85;0.85;;;9.00;99.90;;;;;;4994548;28;20034;-81
2023/02/24 00:58:41;;;;;;;0.10;0.10;;;8.90;99.90;;;;;;4994417;28;20037;-82
2023/02/24 01:01:16;;;;;;;1.08;1.02;;;8.90;99.90;;;;;;4997928;28;20057;-82
2023/02/24 01:03:43;;;;;;;0.20;0.20;;;8.90;99.90;;;;;;4989059;28;20462;-83
2023/02/24 01:06:11;;;;;;;0.20;0.20;;;8.90;99.90;;;;;;5000120;28;20029;-82
2023/02/24 01:08:41;;;;;;;0.25;0.25;;;8.90;99.90;;;;;;4999179;28;20030;-82
2023/02/24 01:13:51;;;;;;;1.38;1.33;;;8.90;99.90;;;;;;5003093;28;20072;-82
2023/02/24 01:16:17;;;;;;;0.65;0.65;;;8.90;99.90;;;;;;5004575;28;20022;-81
2023/02/24 01:18:46;;;;;;;0.40;0.40;;;8.90;99.90;;;;;;4998990;28;20030;-81
2023/02/24 01:21:13;;;;;;;1.38;0.52;;;8.80;99.90;;;;;;4985564;28;20033;-82
2023/02/24 01:23:41;;;;;;;0.20;0.20;;;8.80;99.90;;;;;;4997398;28;20029;-83
2023/02/24 01:26:08;;;;;;;0.20;0.20;;;8.70;99.90;;;;;;4980879;28;20037;-84
2023/02/24 01:28:36;;;;;;;0.30;0.30;;;8.80;99.90;;;;;;5006165;28;20145;-84
2023/02/24 01:31:04;;;;;;;0.28;0.28;;;8.80;99.90;;;;;;5003268;28;20030;-84
2023/02/24 01:33:40;;;;;;;0.30;0.30;;;8.90;99.90;;;;;;5001257;28;20552;-84
2023/02/24 01:36:14;;;;;;;0.40;0.40;;;9.10;99.90;;;;;;5010466;28;20057;-84
2023/02/24 01:38:43;;;;;;;0.20;0.20;;;9.10;99.90;;;;;;4975627;28;20030;-83
2023/02/24 01:41:12;;;;;;;0.30;0.30;;;9.20;99.90;;;;;;4980637;28;20084;-83
2023/02/24 01:44:00;;;;;;;0.10;0.10;;;9.20;99.90;;;;;;5012798;28;20489;-82
2023/02/24 01:46:28;;;;;;;2.63;0.68;;;9.50;99.90;;;;;;5004106;28;20034;-82
2023/02/24 01:48:58;;;;;;;0.10;0.10;;;9.70;99.90;;;;;;5000922;28;20096;-82
2023/02/24 01:51:28;;;;;;;0.10;0.10;;;10.00;99.90;;;;;;4995993;28;20053;-82
2023/02/24 01:53:54;;;;;;;33.10;2.05;;;9.80;99.90;;;;;;4998527;28;20036;-82
2023/02/24 01:56:19;;;;;;;0.10;0.10;;;10.00;99.90;;;;;;5012164;28;20108;-85
2023/02/24 01:58:46;;;;;;;0.10;0.10;;;9.90;99.90;;;;;;4997154;28;20159;-85
2023/02/24 02:01:15;;;;;;;1.17;1.17;;;10.30;99.90;;;;;;5003280;28;20130;-83
2023/02/24 02:03:42;;;;;;;0.80;0.65;;;10.30;99.90;;;;;;5004395;28;20065;-85
2023/02/24 02:06:11;;;;;;;0.30;0.30;;;10.30;99.90;;;;;;4996799;28;20034;-83
2023/02/24 02:08:40;;;;;;;0.73;0.73;;;10.30;99.90;;;;;;5003601;28;20029;-83
2023/02/24 02:11:12;;;;;;;0.10;0.10;;;10.20;99.90;;;;;;5003744;28;20076;-83
2023/02/24 02:13:43;;;;;;;0.35;0.35;;;10.20;99.90;;;;;;5010480;28;20030;-84
2023/02/24 02:16:15;;;;;;;0.30;0.30;;;10.30;99.90;;;;;;4999050;28;20686;-83
2023/02/24 02:18:49;;;;;;;0.35;0.28;;;10.30;99.90;;;;;;5001611;28;20025;-82
2023/02/24 02:21:27;;;;;;;0.43;0.43;;;10.30;99.90;;;;;;4997447;28;20077;-82
2023/02/24 02:24:11;;;;;;;1.27;1.13;;;10.40;99.90;;;;;;5002364;28;20029;-85
2023/02/24 02:27:00;;;;;;;0.17;0.17;;;9.80;99.90;;;;;;4981047;28;20675;-83
2023/02/24 02:29:45;;;;;;;0.35;0.35;;;9.60;99.90;;;;;;5002360;28;20029;-85
2023/02/24 02:32:41;;;;;;;0.55;0.55;;;9.60;99.90;;;;;;5004808;28;20061;-81
2023/02/24 02:35:13;;;;;;;0.22;0.22;;;9.60;99.90;;;;;;5006180;28;20028;-84
2023/02/24 02:38:02;;;;;;;0.15;0.15;;;9.60;99.90;;;;;;5000486;28;20033;-85
2023/02/24 02:40:47;;;;;;;0.30;0.30;;;9.60;99.90;;;;;;4995050;28;20022;-82
2023/02/24 02:43:17;;;;;;;0.55;0.55;;;9.70;99.90;;;;;;5002217;28;20045;-81
2023/02/24 02:46:05;;;;;;;0.38;0.38;;;9.70;99.90;;;;;;5009145;28;20108;-83
2023/02/24 02:48:52;;;;;;;0.22;0.22;;;9.70;99.90;;;;;;5002421;28;20040;-82
2023/02/24 02:51:25;;;;;;;0.75;0.75;;;9.50;99.90;;;;;;5000426;28;20026;-82
2023/02/24 02:54:01;;;;;;;0.10;0.10;;;9.30;99.90;;;;;;4994034;28;20030;-84
2023/02/24 02:56:32;;;;;;;0.80;0.80;;;9.30;99.90;;;;;;5005556;28;20033;-81
2023/02/24 02:58:59;;;;;;;0.40;0.40;;;9.00;99.90;;;;;;4986242;28;20044;-82
2023/02/24 03:01:32;;;;;;;0.10;0.10;;;9.00;99.90;;;;;;5001868;28;20036;-83
2023/02/24 03:04:03;;;;;;;0.40;0.40;;;8.90;99.90;;;;;;4981757;28;20022;-82
2023/02/24 03:06:42;;;;;;;0.30;0.30;;;8.90;99.90;;;;;;5002000;28;20025;-81
2023/02/24 03:09:18;;;;;;;8.32;1.75;;;8.90;99.90;;;;;;5006138;28;20053;-81
2023/02/24 03:11:54;;;;;;;0.10;0.10;;;8.90;99.90;;;;;;5001860;28;20785;-81
2023/02/24 03:14:28;;;;;;;0.10;0.10;;;9.00;99.90;;;;;;4975106;28;20031;-82
2023/02/24 03:16:57;;;;;;;0.10;0.10;;;9.10;99.90;;;;;;4995160;28;20307;-83
2023/02/24 03:19:30;;;;;;;0.10;0.10;;;9.10;99.90;;;;;;4998397;28;20068;-82
2023/02/24 03:22:05;;;;;;;0.35;0.35;;;9.10;99.90;;;;;;5000951;28;20026;-81
2023/02/24 03:24:31;;;;;;;2.97;1.17;;;9.00;99.90;;;;;;5003236;28;20042;-83
2023/02/24 03:27:09;;;;;;;0.10;0.10;;;9.00;99.90;;;;;;4997356;28;20720;-81
2023/02/24 03:29:47;;;;;;;0.10;0.10;;;9.00;99.90;;;;;;4980251;28;20068;-83
2023/02/24 03:32:21;;;;;;;0.20;0.20;;;9.10;99.90;;;;;;4974673;28;20454;-82
2023/02/24 03:35:08;;;;;;;0.45;0.45;;;9.00;99.90;;;;;;5003406;28;20492;-82
2023/02/24 03:37:35;;;;;;;0.52;0.52;;;9.00;99.90;;;;;;5008509;28;20025;-81
2023/02/24 03:40:14;;;;;;;4.47;0.93;;;8.70;99.90;;;;;;5006475;28;20034;-81
2023/02/24 03:42:44;;;;;;;0.60;0.60;;;8.20;99.90;;;;;;5006959;28;20029;-82
2023/02/24 03:45:11;;;;;;;0.70;0.70;;;8.10;99.90;;;;;;5001054;28;20038;-82
2023/02/24 03:47:39;;;;;;;0.50;0.50;;;8.00;99.90;;;;;;5001109;28;20742;-82
2023/02/24 03:50:19;;;;;;;0.15;0.15;;;7.60;99.90;;;;;;4978431;28;20132;-84
2023/02/24 03:53:07;;;;;;;0.20;0.20;;;7.60;99.90;;;;;;5010706;28;20445;-83
2023/02/24 03:55:32;;;;;;;;;;;7.50;99.90;;;;;;4999658;28;20472;-82
2023/02/24 03:58:37;;;;;;;0.47;0.47;;;7.40;99.90;;;;;;5000986;28;19944;-84
2023/02/24 04:01:04;;;;;;;0.40;0.40;;;7.20;99.90;;;;;;4996975;28;20033;-83
2023/02/24 04:03:36;;;;;;;;;;;7.10;99.90;;;;;;4997862;28;20030;-84
2023/02/24 04:06:26;;;;;;;1.00;0.90;;;6.90;99.90;;;;;;5003347;28;20099;-83
2023/02/24 04:09:00;;;;;;;0.30;0.30;;;6.80;99.90;;;;;;4998341;28;20038;-84
2023/02/24 04:11:36;;;;;;;0.20;0.20;;;6.70;99.90;;;;;;5005519;28;20419;-85
2023/02/24 04:14:05;;;;;;;0.73;0.73;;;6.60;99.90;;;;;;4991257;28;20121;-84
2023/02/24 04:16:40;;;;;;;0.55;0.55;;;6.50;99.90;;;;;;4997242;28;20468;-84
2023/02/24 04:19:12;;;;;;;1.25;1.17;;;6.40;99.90;;;;;;4997188;28;20030;-83
2023/02/24 04:21:41;;;;;;;0.28;0.28;;;6.50;99.90;;;;;;5010595;28;20121;-84
2023/02/24 04:24:14;;;;;;;0.30;0.30;;;6.20;99.90;;;;;;4994357;28;20042;-84
2023/02/24 04:26:43;;;;;;;0.10;0.10;;;6.20;99.90;;;;;;4990782;28;20025;-85
2023/02/24 04:29:16;;;;;;;0.10;0.10;;;6.30;99.90;;;;;;5001888;28;20100;-85
2023/02/24 04:31:53;;;;;;;0.10;0.10;;;6.30;99.90;;;;;;4991531;28;20025;-84
2023/02/24 04:34:18;;;;;;;;;;;6.00;99.90;;;;;;4996952;28;20109;-84
2023/02/24 04:36:48;;;;;;;0.10;0.10;;;6.00;99.90;;;;;;5004573;28;20039;-84
2023/02/24 04:39:22;;;;;;;0.10;0.10;;;6.10;99.90;;;;;;4989731;28;20615;-84
2023/02/24 04:41:48;;;;;;;0.10;0.10;;;5.90;99.90;;;;;;4996035;28;20080;-83
2023/02/24 04:44:19;;;;;;;0.10;0.10;;;5.90;99.90;;;;;;5004275;28;20100;-83
2023/02/24 04:46:46;;;;;;;0.10;0.10;;;5.80;99.90;;;;;;5006380;28;20860;-82
2023/02/24 04:49:12;;;;;;;0.10;0.10;;;5.70;99.90;;;;;;4977473;28;20125;-84
2023/02/24 04:51:41;;;;;;;0.10;0.10;;;6.10;99.90;;;;;;4996058;28;20030;-84
2023/02/24 04:54:08;;;;;;;0.15;0.15;;;6.20;99.90;;;;;;5004623;28;20026;-84
2023/02/24 04:56:35;;;;;;;0.10;0.10;;;6.30;99.90;;;;;;5011852;28;20035;-85
2023/02/24 04:59:01;;;;;;;0.10;0.10;;;6.20;99.90;;;;;;5003058;28;20022;-86
2023/02/24 05:01:28;;;;;;;0.10;0.10;;;6.30;99.90;;;;;;4997098;28;20033;-85
2023/02/24 05:03:53;;;;;;;0.10;0.10;;;6.30;99.90;;;;;;4993760;28;20048;-83
2023/02/24 05:06:19;;;;;;;0.10;0.10;;;6.20;99.90;;;;;;5009984;28;20071;-84
2023/02/24 05:08:45;;;;;;;0.77;0.73;;;6.20;99.90;;;;;;4998953;28;20038;-84
2023/02/24 05:11:15;;;;;;;0.10;0.10;;;6.10;99.90;;;;;;5006363;28;20037;-84
2023/02/24 05:13:44;;;;;;;0.10;0.10;;;6.10;99.90;;;;;;5012956;28;20076;-83
2023/02/24 05:16:11;;;;;;;0.57;0.57;;;6.10;99.90;;;;;;4990451;28;20054;-83
2023/02/24 05:18:37;;;;;;;0.20;0.20;;;5.90;99.90;;;;;;5012888;28;20081;-84
2023/02/24 05:23:58;;;;;;;0.10;0.10;;;6.20;99.90;;;;;;4994327;28;20357;-82
2023/02/24 05:26:25;;;;;;;0.10;0.10;;;6.10;99.90;;;;;;5001673;28;20057;-82
2023/02/24 05:28:53;;;;;;;0.10;0.10;;;6.00;99.90;;;;;;5001759;28;20041;-81
2023/02/24 05:31:27;;;;;;;0.28;0.28;;;6.20;99.90;;;;;;5003260;28;20877;-83
2023/02/24 05:34:00;;;;;;;0.13;0.13;;;6.10;99.90;;;;;;5001533;28;20057;-81
2023/02/24 05:36:30;;;;;;;0.10;0.10;;;6.00;99.90;;;;;;5004056;28;20095;-85
2023/02/24 05:38:57;;;;;;;0.10;0.10;;;6.00;99.90;;;;;;5010648;28;20060;-83
2023/02/24 05:41:34;;;;;;;0.10;0.10;;;6.00;99.90;;;;;;5007162;28;20041;-82
2023/02/24 05:44:03;;;;;;;0.10;0.10;;;5.90;99.90;;;;;;5002984;28;20046;-83
2023/02/24 05:46:31;;;;;;;0.25;0.25;;;5.90;99.90;;;;;;4996226;28;20894;-84
2023/02/24 05:49:09;;;;;;;0.10;0.10;;;5.90;99.90;;;;;;4997166;28;20041;-83
2023/02/24 05:51:37;;;;;;;0.10;0.10;;;6.00;99.90;;;;;;4992705;28;20173;-82
2023/02/24 05:54:08;;;;;;;0.10;0.10;;;6.00;99.90;;;;;;5015446;28;20025;-84
2023/02/24 05:56:37;;;;;;;0.20;0.20;;;6.10;99.90;;;;;;5006898;28;20860;-82
2023/02/24 05:59:07;;;;;;;0.10;0.10;;;6.20;99.90;;;;;;4993406;28;20040;-83
2023/02/24 06:01:40;;;;;;;0.20;0.20;;;6.10;99.90;;;;;;5001642;28;20080;-83
2023/02/24 06:04:07;;;;;;;0.10;0.10;;;6.10;99.90;;;;;;5000361;28;20028;-83
2023/02/24 06:06:37;;;;;;;0.40;0.40;;;6.10;99.90;;;;;;4998373;28;20022;-83
2023/02/24 06:09:07;;;;;;;1.55;1.45;;;6.10;99.90;;;;;;4996618;28;20042;-85
2023/02/24 06:11:33;;;;;;;1.45;1.35;;;6.00;99.90;;;;;;5003174;28;20026;-84
2023/02/24 06:13:59;;;;;;;1.30;0.80;;;6.20;99.90;;;;;;4995197;28;20450;-85
2023/02/24 06:16:25;;;;;;;1.08;0.82;;;6.10;99.90;;;;;;4993860;28;20030;-84
2023/02/24 06:18:51;;;;;;;0.57;0.57;;;6.20;99.90;;;;;;5004721;28;20026;-86
2023/02/24 06:21:17;;;;;;;0.30;0.30;;;6.20;99.90;;;;;;4984850;28;20026;-85
2023/02/24 06:23:44;;;;;;;0.68;0.68;;;6.20;99.90;;;;;;4975495;28;20045;-84
2023/02/24 06:26:18;;;;;;;0.20;0.20;;;6.10;99.90;;;;;;5004154;28;20117;-85
2023/02/24 06:28:45;;;;;;;0.63;0.63;;;6.10;99.90;;;;;;4991761;28;20026;-84
2023/02/24 06:31:12;;;;;;;;;;;6.10;99.90;;;;;;5003236;28;20026;-83
2023/02/24 06:33:39;;;;;;;1.38;0.80;;;6.10;99.90;;;;;;5002603;28;19983;-83
2023/02/24 06:36:06;;;;;;;0.68;0.68;;;5.90;99.90;;;;;;5013816;28;20030;-82
2023/02/24 06:38:34;;;;;;;0.20;0.20;;;5.90;99.90;;;;;;4997093;28;20034;-81
2023/02/24 06:41:09;;;;;;;0.10;0.10;;;5.80;99.90;;;;;;4977721;28;20041;-83
2023/02/24 06:43:38;;;;;;;0.30;0.30;;;5.80;99.90;;;;;;4993279;28;20062;-82
2023/02/24 06:46:05;;;;;;;0.20;0.20;;;5.70;99.90;;;;;;4993627;28;20029;-84
2023/02/24 06:48:32;;;;;;;;;;;5.70;99.90;;;;;;4997378;28;20038;-84
2023/02/24 06:51:03;;;;;;;0.15;0.15;;;5.70;99.90;;;;;;4989241;28;19932;-84
2023/02/24 06:53:30;;;;;;;0.10;0.10;;;5.70;99.90;;;;;;5012561;28;20053;-84
2023/02/24 06:55:56;;;;;;;0.10;0.10;;;5.60;99.90;;;;;;4995757;28;20030;-84
2023/02/24 06:58:23;;;;;;;0.10;0.10;;;5.80;99.90;;;;;;5008280;28;20115;-83
2023/02/24 07:00:58;;;;;;;0.10;0.10;;;6.10;99.90;;;;;;5014708;28;20037;-82
2023/02/24 07:03:46;;;;;;;0.10;0.10;;;6.00;99.90;;;;;;4993355;28;20048;-82
2023/02/24 07:06:24;;;;;;;0.25;0.25;;;5.90;99.90;;;;;;5017397;28;20025;-83
2023/02/24 07:08:51;;;;;;;0.20;0.20;;;5.80;99.90;;;;;;4997218;28;20084;-84
2023/02/24 07:11:18;;;;;;;;;;;5.80;99.90;;;;;;5011486;28;20113;-84
2023/02/24 07:13:46;;;;;;;;;;;5.90;99.90;;;;;;5008327;28;20027;-84
2023/02/24 07:16:14;;;;;;;0.20;0.20;;;5.80;99.90;;;;;;4997277;28;20565;-85
2023/02/24 07:18:41;;;;;;;0.10;0.10;;;5.90;99.90;;;;;;4999101;28;20038;-85
2023/02/24 07:21:11;;;;;;;;;;;5.90;99.90;;;;;;4993858;28;20117;-84
2023/02/24 07:23:38;;;;;;;1.83;1.42;;;5.80;99.90;;;;;;4989084;28;19917;-85
2023/02/24 07:26:09;;;;;;;0.80;0.70;;;5.90;99.90;;;;;;4998518;28;20026;-78
2023/02/24 07:28:38;;;;;;;0.40;0.40;;;5.80;99.90;;;;;;5003436;28;20116;-78
2023/02/24 07:31:08;;;;;;;0.10;0.10;;;5.70;99.90;;;;;;5015473;28;20050;-78
2023/02/24 07:33:38;;;;;;;0.20;0.20;;;5.70;99.90;;;;;;4984537;28;20836;-79
2023/02/24 07:36:07;;;;;;;0.10;0.10;;;5.60;99.90;;;;;;4999459;28;20456;-79
2023/02/24 07:38:37;;;;;;;0.10;0.10;;;5.60;99.90;;;;;;5009863;28;20025;-78
2023/02/24 07:41:06;;;;;;;0.70;0.45;;;5.70;99.90;;;;;;5012492;28;20041;-78
2023/02/24 07:43:39;;;;;;;0.10;0.10;;;5.40;99.90;;;;;;5005528;28;20092;-78
2023/02/24 07:46:14;;;;;;;0.10;0.10;;;5.60;99.90;;;;;;4995558;28;20095;-79
2023/02/24 07:48:41;;;;;;;0.40;0.40;;;5.80;99.90;;;;;;4992514;28;20436;-78
2023/02/24 07:51:08;;;;;;;0.95;0.55;;;5.70;99.90;;;;;;4999601;28;20030;-79
2023/02/24 07:53:35;;;;;;;0.10;0.10;;;5.80;99.90;;;;;;5009913;28;20091;-79
2023/02/24 07:56:12;;;;;;;0.20;0.20;;;5.50;99.90;;;;;;4994222;28;20065;-78
2023/02/24 07:58:41;;;;;;;0.17;0.17;;;5.70;99.90;;;;;;4995381;28;20027;-78
2023/02/24 08:01:07;;;;;;;0.30;0.30;;;5.70;99.90;;;;;;5000004;28;20037;-78
2023/02/24 08:03:40;;;;;;;0.63;0.63;;;5.60;99.90;;;;;;4996128;28;20118;-79
2023/02/24 08:06:14;;;;;;;0.30;0.30;;;5.70;99.90;;;;;;5002658;28;20036;-79
2023/02/24 08:08:56;;;;;;;0.10;0.10;;;5.50;99.90;;;;;;4991529;28;20117;-79
2023/02/24 08:11:23;;;;;;;0.10;0.10;;;5.60;99.90;;;;;;5010565;28;20042;-79
2023/02/24 08:13:50;;;;;;;0.20;0.20;;;5.80;99.90;;;;;;5006717;28;20113;-79
2023/02/24 08:16:15;;;;;;;0.10;0.10;;;5.80;99.90;;;;;;4982561;28;20183;-80
2023/02/24 08:18:47;;;;;;;0.10;0.10;;;5.70;99.90;;;;;;5002578;28;20846;-78
2023/02/24 08:21:15;;;;;;;0.25;0.25;;;6.00;99.90;;;;;;5014779;28;20076;-80
2023/02/24 08:23:43;;;;;;;0.10;0.10;;;5.70;99.90;;;;;;4983790;28;20481;-78
2023/02/24 08:26:11;;;;;;;0.20;0.20;;;6.10;99.90;;;;;;4983880;28;20036;-82
2023/02/24 08:28:38;;;;;;;0.10;0.10;;;5.80;99.90;;;;;;4988230;28;20760;-78
2023/02/24 08:31:04;;;;;;;0.10;0.10;;;6.00;99.90;;;;;;4989378;28;20076;-80
2023/02/24 08:33:31;;;;;;;0.10;0.10;;;6.00;99.90;;;;;;5011347;28;20105;-78
2023/02/24 08:36:00;;;;;;;0.30;0.30;;;6.00;99.90;;;;;;4992863;28;20029;-78
2023/02/24 08:38:38;;;;;;;0.50;0.50;;;5.80;99.90;;;;;;5011630;28;20026;-79
2023/02/24 08:41:05;;;;;;;0.38;0.38;;;5.80;99.90;;;;;;4995726;28;20025;-80
2023/02/24 08:43:37;;;;;;;;;;;5.70;99.90;;;;;;4998915;28;20065;-78
2023/02/24 08:46:11;;;;;;;0.20;0.20;;;5.80;99.90;;;;;;4994901;28;19910;-78
2023/02/24 08:48:59;;;;;;;0.20;0.20;;;5.70;99.90;;;;;;4997029;28;20084;-78
2023/02/24 08:51:33;;;;;;;0.45;0.30;;;5.70;99.90;;;;;;5011040;28;20124;-78
2023/02/24 08:54:02;;;;;;;0.40;0.40;;;5.70;99.90;;;;;;5001313;28;20026;-79
2023/02/24 08:56:33;;;;;;;0.52;0.52;;;5.90;99.90;;;;;;5000775;28;20026;-79
2023/02/24 08:59:05;;;;;;;0.20;0.20;;;5.80;99.90;;;;;;5002597;28;20030;-79
2023/02/24 09:01:34;;;;;;;0.17;0.17;;;5.90;99.90;;;;;;4999933;28;20025;-79
2023/02/24 09:04:04;;;;;;;0.30;0.30;;;6.10;99.90;;;;;;5007970;28;20112;-79
2023/02/24 09:06:36;;;;;;;0.20;0.20;;;5.80;99.90;;;;;;4994349;28;20021;-81
2023/02/24 09:09:17;;;;;;;0.17;0.17;;;5.50;99.90;;;;;;4995834;28;20034;-81
2023/02/24 09:11:54;;;;;;;0.25;0.25;;;5.60;99.90;;;;;;4998442;28;20139;-79
2023/02/24 09:14:22;;;;;;;0.20;0.20;;;5.80;99.90;;;;;;4996468;28;20497;-79
2023/02/24 09:17:38;;;;;;;0.30;0.30;;;5.80;99.90;;;;;;5006985;28;20076;-79
2023/02/24 09:22:14;;;;;;;0.28;0.28;;;6.10;99.90;;;;;;4989247;28;20064;-78
2023/02/24 09:24:40;;;;;;;;;;;5.90;99.90;;;;;;5013812;28;20611;-80
2023/02/24 09:27:06;;;;;;;0.20;0.20;;;5.80;99.90;;;;;;5006911;28;19944;-79
2023/02/24 09:29:47;;;;;;;0.20;0.20;;;5.90;99.90;;;;;;5006523;28;20057;-79
2023/02/24 09:32:14;;;;;;;0.38;0.38;;;5.60;99.90;;;;;;5002275;28;20120;-78
2023/02/24 09:34:42;;;;;;;0.20;0.20;;;5.70;99.90;;;;;;4988757;28;20105;-79
2023/02/24 09:37:23;;;;;;;0.10;0.10;;;5.70;99.90;;;;;;4996742;28;20509;-79
2023/02/24 09:42:31;;;;;;;0.10;0.10;;;6.00;99.90;;;;;;5020572;28;20036;-79
2023/02/24 09:45:31;;;;;;;0.15;0.15;;;6.40;99.90;;;;;;5009835;28;20057;-79
2023/02/24 09:48:02;;;;;;;0.20;0.20;;;6.30;99.90;;;;;;5012173;28;20033;-80
2023/02/24 09:50:44;;;;;;;0.30;0.30;;;6.10;99.90;;;;;;5007099;28;20508;-79
2023/02/24 09:53:16;;;;;;;0.10;0.10;;;5.80;99.90;;;;;;5012310;28;20022;-80
2023/02/24 09:56:09;;;;;;;0.20;0.20;;;5.90;99.90;;;;;;5008000;28;20072;-79
2023/02/24 09:58:48;;;;;;;0.10;0.10;;;5.80;99.90;;;;;;5002118;28;20025;-81
2023/02/24 10:01:19;;;;;;;0.13;0.13;;;6.00;99.90;;;;;;5012105;28;20041;-79
2023/02/24 10:04:07;;;;;;;0.10;0.10;;;6.00;99.90;;;;;;5005603;28;20041;-79
2023/02/24 10:06:44;;;;;;;0.20;0.20;;;5.90;99.90;;;;;;4998477;28;20036;-79
2023/02/24 10:09:36;;;;;;;0.35;0.35;;;5.80;99.90;;;;;;4997603;28;20065;-81
2023/02/24 10:12:18;;;;;;;0.30;0.30;;;5.80;99.90;;;;;;5003494;28;20029;-80
2023/02/24 10:15:17;;;;;;;0.30;0.30;;;5.80;99.90;;;;;;4990969;28;20045;-79
2023/02/24 10:17:46;;;;;;;0.10;0.10;;;5.70;99.90;;;;;;4992669;28;20121;-80
2023/02/24 10:20:39;;;;;;;0.10;0.10;;;5.80;99.90;;;;;;5006343;28;20105;-81
2023/02/24 10:23:34;;;;;;;0.10;0.10;;;5.60;99.90;;;;;;4991750;28;20501;-80
2023/02/24 10:26:20;;;;;;;0.28;0.22;;;5.70;99.90;;;;;;4975875;28;20196;-80
2023/02/24 10:28:56;;;;;;;0.50;0.50;;;5.60;99.90;;;;;;4993199;28;20025;-80
2023/02/24 10:31:34;;;;;;;0.10;0.10;;;5.70;99.90;;;;;;5006017;28;20045;-79
2023/02/24 10:34:07;;;;;;;0.68;0.68;;;5.70;99.90;;;;;;5015098;28;20036;-81
2023/02/24 10:36:36;;;;;;;1.85;0.93;;;5.40;99.90;;;;;;5003791;28;20044;-78
2023/02/24 10:39:15;;;;;;;0.30;0.30;;;5.40;99.90;;;;;;4991889;28;20032;-80
2023/02/24 10:41:44;;;;;;;0.25;0.25;;;5.30;99.90;;;;;;5013578;28;20030;-79
2023/02/24 10:44:11;;;;;;;0.13;0.13;;;5.60;99.90;;;;;;4999708;28;20046;-80
2023/02/24 10:46:37;;;;;;;0.15;0.15;;;5.20;99.90;;;;;;5018274;28;20163;-80
2023/02/24 10:49:08;;;;;;;0.30;0.30;;;5.30;99.90;;;;;;5008637;28;20101;-78
2023/02/24 10:51:46;;;;;;;0.20;0.20;;;5.30;99.90;;;;;;5000188;28;20029;-79
2023/02/24 10:54:43;;;;;;;0.40;0.40;;;5.40;99.90;;;;;;4995300;28;20022;-81
2023/02/24 10:57:17;;;;;;;0.30;0.30;;;5.40;99.90;;;;;;5007321;28;20034;-79
2023/02/24 11:02:55;;;;;;;0.52;0.52;;;5.80;99.90;;;;;;5006016;28;20030;-80
2023/02/24 11:05:37;;;;;;;0.10;0.10;;;6.30;99.90;;;;;;5004898;28;20022;-79
2023/02/24 11:11:28;;;;;;;0.10;0.10;;;7.10;99.90;;;;;;4997788;28;20115;-80
2023/02/24 11:17:15;;;;;;;0.10;0.10;;;8.00;99.90;;;;;;4942238;29;20110;-79
2023/02/24 11:19:48;;;;;;;0.10;0.10;;;8.00;99.90;;;;;;4941131;29;20438;-79
2023/02/24 11:22:22;;;;;;;0.15;0.15;;;8.30;99.90;;;;;;4970408;28;20045;-79
2023/02/24 11:24:49;;;;;;;0.10;0.10;;;8.00;99.90;;;;;;5019413;28;20034;-80
2023/02/24 11:27:20;;;;;;;0.38;0.38;;;8.70;99.90;;;;;;5004011;28;20030;-82
2023/02/24 11:30:01;;;;;;;0.10;0.10;;;8.70;99.90;;;;;;4997851;28;20572;-79
2023/02/24 11:32:33;;;;;;;0.10;0.10;;;9.00;99.90;;;;;;5010944;28;20021;-81
2023/02/24 11:35:04;;;;;;;0.10;0.10;;;9.60;99.90;;;;;;5003713;28;20060;-80
2023/02/24 11:38:06;;;;;;;0.10;0.10;;;9.60;99.90;;;;;;5009077;28;20100;-80
2023/02/24 11:40:38;;;;;;;0.10;0.10;;;9.30;99.90;;;;;;4993054;28;20076;-80
2023/02/24 11:43:17;;;;;;;0.10;0.10;;;9.00;99.90;;;;;;5008996;28;20049;-79
2023/02/24 11:46:08;;;;;;;0.13;0.13;;;8.90;99.90;;;;;;4998755;28;20053;-79
2023/02/24 11:48:42;;;;;;;0.10;0.10;;;8.30;99.90;;;;;;4990463;28;20103;-79
2023/02/24 11:51:21;;;;;;;0.10;0.10;;;8.40;99.90;;;;;;4976859;28;20485;-80
2023/02/24 11:54:13;;;;;;;0.10;0.10;;;8.20;99.90;;;;;;5007124;28;20025;-80
2023/02/24 11:56:45;;;;;;;0.10;0.10;;;8.60;99.90;;;;;;5010681;28;20029;-81
2023/02/24 11:59:29;;;;;;;0.10;0.10;;;8.70;99.90;;;;;;4974154;28;20092;-80
2023/02/24 12:02:10;;;;;;;0.20;0.20;;;8.80;99.90;;;;;;4996930;28;20033;-80
2023/02/24 12:04:52;;;;;;;0.13;0.13;;;8.80;99.90;;;;;;5011953;28;20032;-79
2023/02/24 12:07:26;;;;;;;0.10;0.10;;;8.30;99.90;;;;;;4998223;28;20133;-79
2023/02/24 12:09:52;;;;;;;0.10;0.10;;;8.50;99.90;;;;;;4996337;28;20116;-80
2023/02/24 12:12:20;;;;;;;0.10;0.10;;;8.10;99.90;;;;;;5008989;28;20400;-79
2023/02/24 12:14:52;;;;;;;0.20;0.20;;;7.90;99.90;;;;;;4996535;28;20488;-80
2023/02/24 12:17:25;;;;;;;0.10;0.10;;;8.30;99.90;;;;;;5003012;28;20022;-79
2023/02/24 12:20:00;;;;;;;0.10;0.10;;;8.10;99.90;;;;;;4998507;28;20536;-80
2023/02/24 12:22:38;;;;;;;0.10;0.10;;;7.80;99.90;;;;;;5021887;28;20025;-82
2023/02/24 12:25:10;;;;;;;0.10;0.10;;;8.00;99.90;;;;;;5005635;28;20044;-79
2023/02/24 12:27:51;;;;;;;0.10;0.10;;;8.40;99.90;;;;;;5020228;28;20053;-81
2023/02/24 12:30:37;;;;;;;0.10;0.10;;;8.60;99.90;;;;;;5018910;28;20567;-80
2023/02/24 12:33:22;;;;;;;0.10;0.10;;;9.00;99.90;;;;;;5018190;28;20033;-79
2023/02/24 12:36:09;;;;;;;0.10;0.10;;;9.60;99.90;;;;;;4994170;28;20512;-80
2023/02/24 12:38:47;;;;;;;0.10;0.10;;;9.20;99.90;;;;;;5019033;28;20164;-79
2023/02/24 12:41:42;;;;;;;0.10;0.10;;;8.30;99.90;;;;;;4987172;28;20088;-79
2023/02/24 12:44:41;;;;;;;0.10;0.10;;;8.30;99.90;;;;;;5007261;28;20050;-79
2023/02/24 12:47:32;;;;;;;0.10;0.10;;;8.40;99.90;;;;;;4987212;28;20472;-80
2023/02/24 12:50:20;;;;;;;0.35;0.35;;;8.40;99.90;;;;;;5015925;28;20091;-80
2023/02/24 12:52:57;;;;;;;0.10;0.10;;;8.50;99.90;;;;;;5000055;28;20022;-81
2023/02/24 12:55:33;;;;;;;0.05;0.05;;;8.20;99.90;;;;;;5001690;28;20033;-79
2023/02/24 12:58:14;;;;;;;0.10;0.10;;;7.80;99.90;;;;;;5001691;28;20093;-79
2023/02/24 13:00:57;;;;;;;0.30;0.30;;;8.10;99.90;;;;;;5003135;28;20025;-79
2023/02/24 13:03:32;;;;;;;0.10;0.10;;;7.80;99.90;;;;;;4998421;28;20273;-79
2023/02/24 13:06:27;;;;;;;0.10;0.10;;;8.00;99.90;;;;;;5007230;28;20033;-80
2023/02/24 13:09:02;;;;;;;0.10;0.10;;;8.30;99.90;;;;;;5012643;28;20033;-79
2023/02/24 13:12:16;;;;;;;0.17;0.17;;;8.00;99.90;;;;;;5011662;28;20038;-79
2023/02/24 13:14:43;;;;;;;0.10;0.10;;;8.00;99.90;;;;;;4997295;28;20033;-80
2023/02/24 13:17:11;;;;;;;0.10;0.10;;;8.10;99.90;;;;;;5010809;28;20533;-80
2023/02/24 13:19:39;;;;;;;0.17;0.17;;;8.10;99.90;;;;;;5006423;28;20034;-80
2023/02/24 13:22:10;;;;;;;;;;;8.20;99.90;;;;;;5011517;28;20049;-79
2023/02/24 13:24:38;;;;;;;0.10;0.10;;;8.00;99.90;;;;;;5011065;28;19917;-82
2023/02/24 13:27:05;;;;;;;0.10;0.10;;;7.90;99.90;;;;;;5018064;28;20057;-80
2023/02/24 13:29:46;;;;;;;0.10;0.10;;;8.00;99.90;;;;;;5015962;28;20029;-80
2023/02/24 13:32:45;;;;;;;0.10;0.10;;;8.20;99.90;;;;;;5003524;28;20033;-80
2023/02/24 13:35:19;;;;;;;0.10;0.10;;;8.00;99.90;;;;;;4957585;28;20036;-79
2023/02/24 13:37:47;;;;;;;0.20;0.20;;;8.10;99.90;;;;;;5015651;28;20067;-79
2023/02/24 13:40:21;;;;;;;0.17;0.17;;;8.20;99.90;;;;;;5015494;28;20739;-79
2023/02/24 13:42:58;;;;;;;0.10;0.10;;;8.00;99.90;;;;;;5005081;28;20022;-81
2023/02/24 13:45:30;;;;;;;0.10;0.10;;;8.20;99.90;;;;;;5005502;28;20129;-80
2023/02/24 13:48:14;;;;;;;0.30;0.30;;;8.20;99.90;;;;;;5014066;28;20029;-79
2023/02/24 13:51:04;;;;;;;0.10;0.10;;;8.20;99.90;;;;;;5005112;28;20038;-80
2023/02/24 13:53:44;;;;;;;0.30;0.30;;;8.20;99.90;;;;;;4997452;28;20030;-80